Time;durP1;ratioP1;P1;durP2;ratioP2;P2;SDS_P1;SDS_P2;PMS_P1;PMS_P2;Temp;Humidity;BMP_temperature;BMP_pressure;BME280_temperature;BME280_humidity;BME280_pressure;Samples;Min_cycle;Max_cycle;Signal;HPM_P1;HPM_P2
2021/12/28 00:02:21;;;;;;;334.97;152.43;;;2.30;99.90;;;;;;5117211;28;20507;-73
2021/12/28 00:04:49;;;;;;;205.30;154.27;;;2.30;99.90;;;;;;5117432;28;20488;-72
2021/12/28 00:07:17;;;;;;;260.47;80.50;;;2.30;99.90;;;;;;5115589;28;20877;-73
2021/12/28 00:09:45;;;;;;;113.73;98.17;;;2.30;99.90;;;;;;5116947;28;20432;-72
2021/12/28 00:12:14;;;;;;;226.23;113.40;;;2.40;99.90;;;;;;5115438;28;20565;-74
2021/12/28 00:14:50;;;;;;;101.80;94.37;;;2.40;99.90;;;;;;5115473;28;20443;-72
2021/12/28 00:20:06;;;;;;;209.03;162.83;;;2.40;99.90;;;;;;5116721;27;20422;-73
2021/12/28 00:22:34;;;;;;;161.87;56.20;;;2.40;99.90;;;;;;5116426;28;20452;-72
2021/12/28 00:25:04;;;;;;;239.73;106.37;;;2.40;99.90;;;;;;5116792;28;20452;-72
2021/12/28 00:27:32;;;;;;;222.90;157.77;;;2.40;99.90;;;;;;5116692;28;20492;-73
2021/12/28 00:30:03;;;;;;;196.47;143.60;;;2.40;99.90;;;;;;5116884;28;20427;-73
2021/12/28 00:32:32;;;;;;;160.13;124.00;;;2.40;99.90;;;;;;5116600;28;20982;-72
2021/12/28 00:35:01;;;;;;;157.37;84.83;;;2.50;99.90;;;;;;5114949;28;20464;-72
2021/12/28 00:37:29;;;;;;;154.00;102.60;;;2.50;99.90;;;;;;5116781;28;20988;-73
2021/12/28 00:39:57;;;;;;;298.30;152.43;;;2.50;99.90;;;;;;5116616;28;20450;-72
2021/12/28 00:42:25;;;;;;;289.77;162.23;;;2.50;99.90;;;;;;5114901;28;21012;-73
2021/12/28 00:44:53;;;;;;;340.23;162.80;;;2.50;99.90;;;;;;5116463;28;20519;-73
2021/12/28 00:47:21;;;;;;;152.57;114.67;;;2.50;99.90;;;;;;5116280;28;20447;-73
2021/12/28 00:49:51;;;;;;;312.30;83.97;;;2.50;99.90;;;;;;5116281;28;20952;-72
2021/12/28 00:52:19;;;;;;;360.07;126.17;;;2.50;99.90;;;;;;5115980;27;20468;-72
2021/12/28 00:54:47;;;;;;;404.50;126.60;;;2.50;99.90;;;;;;5116268;28;20438;-73
2021/12/28 00:57:16;;;;;;;300.53;123.30;;;2.50;99.90;;;;;;5116146;28;20477;-73
2021/12/28 00:59:44;;;;;;;284.37;120.20;;;2.60;99.90;;;;;;5116394;28;20530;-73
2021/12/28 01:02:12;;;;;;;262.23;107.10;;;2.50;99.90;;;;;;5114510;28;20478;-72
2021/12/28 01:04:40;;;;;;;197.47;64.77;;;2.60;99.90;;;;;;5116007;28;20438;-72
2021/12/28 01:07:10;;;;;;;118.33;109.00;;;2.60;99.90;;;;;;5114443;28;20450;-72
2021/12/28 01:09:41;;;;;;;593.03;166.03;;;2.60;99.90;;;;;;5115659;28;20958;-72
2021/12/28 01:12:10;;;;;;;131.63;90.77;;;2.60;99.90;;;;;;5116109;28;20876;-72
2021/12/28 01:14:38;;;;;;;246.33;116.53;;;2.60;99.90;;;;;;5115722;28;20534;-72
2021/12/28 01:17:07;;;;;;;218.20;81.57;;;2.60;99.90;;;;;;5115916;28;20496;-73
2021/12/28 01:19:35;;;;;;;240.80;118.93;;;2.60;99.90;;;;;;5114575;28;20429;-72
2021/12/28 01:22:04;;;;;;;249.63;119.27;;;2.60;99.90;;;;;;5115505;28;20458;-73
2021/12/28 01:24:34;;;;;;;142.90;75.40;;;2.60;99.90;;;;;;5115672;28;20463;-72
2021/12/28 01:27:02;;;;;;;154.27;69.10;;;2.70;99.90;;;;;;5114228;28;20537;-73
2021/12/28 01:29:30;;;;;;;152.10;72.07;;;2.70;99.90;;;;;;5115305;28;20437;-73
2021/12/28 01:31:58;;;;;;;161.47;85.67;;;2.70;99.90;;;;;;5115641;28;20473;-73
2021/12/28 01:34:26;;;;;;;103.40;79.57;;;2.70;99.90;;;;;;5115590;28;20439;-72
2021/12/28 01:36:54;;;;;;;124.37;88.57;;;2.70;99.90;;;;;;5115845;28;20435;-73
2021/12/28 01:39:23;;;;;;;140.70;73.77;;;2.70;99.90;;;;;;5114029;28;20435;-72
2021/12/28 01:41:52;;;;;;;112.87;75.70;;;2.70;99.90;;;;;;5115244;27;20834;-73
2021/12/28 01:44:21;;;;;;;175.47;72.97;;;2.70;99.90;;;;;;5115083;28;20530;-72
2021/12/28 01:46:49;;;;;;;180.13;63.43;;;2.70;99.90;;;;;;5114973;28;20435;-72
2021/12/28 01:49:17;;;;;;;97.50;81.80;;;2.70;99.90;;;;;;5114983;28;20449;-72
2021/12/28 01:51:46;;;;;;;245.53;83.50;;;2.80;99.90;;;;;;5115075;28;20488;-73
2021/12/28 01:54:14;;;;;;;155.03;66.77;;;2.80;99.90;;;;;;5114739;28;21060;-72
2021/12/28 01:56:46;;;;;;;176.60;62.33;;;2.80;99.90;;;;;;5114894;28;20877;-72
2021/12/28 01:59:20;;;;;;;180.40;86.77;;;2.80;99.90;;;;;;5113093;28;20504;-72
2021/12/28 02:01:49;;;;;;;107.63;60.07;;;2.80;99.90;;;;;;5114959;28;20447;-73
2021/12/28 02:04:20;;;;;;;153.57;64.90;;;2.80;99.90;;;;;;5114923;28;20429;-73
2021/12/28 02:06:49;;;;;;;184.23;62.00;;;2.90;99.90;;;;;;5115041;28;20971;-73
2021/12/28 02:09:18;;;;;;;157.93;66.10;;;2.90;99.90;;;;;;5114814;28;20525;-73
2021/12/28 02:11:47;;;;;;;205.00;69.80;;;2.90;99.90;;;;;;5114625;28;20477;-73
2021/12/28 02:14:17;;;;;;;166.47;69.13;;;2.90;99.90;;;;;;5114354;28;20566;-73
2021/12/28 02:16:45;;;;;;;186.07;68.37;;;2.90;99.90;;;;;;5114485;28;20466;-72
2021/12/28 02:19:15;;;;;;;193.70;60.10;;;2.90;99.90;;;;;;5114826;28;20427;-73
2021/12/28 02:21:45;;;;;;;155.83;77.23;;;2.90;99.90;;;;;;5115062;28;20461;-73
2021/12/28 02:24:13;;;;;;;212.40;57.13;;;2.90;99.90;;;;;;5114924;28;20444;-72
2021/12/28 02:26:41;;;;;;;195.33;63.10;;;2.90;99.90;;;;;;5114551;28;20841;-72
2021/12/28 02:29:09;;;;;;;193.73;53.73;;;3.00;99.90;;;;;;5114618;28;20447;-74
2021/12/28 02:31:38;;;;;;;205.67;61.40;;;3.00;99.90;;;;;;5114413;28;20459;-72
2021/12/28 02:34:07;;;;;;;223.60;64.13;;;3.00;99.90;;;;;;5114253;28;20467;-72
2021/12/28 02:36:35;;;;;;;218.33;62.57;;;3.00;99.90;;;;;;5114482;28;20484;-72
2021/12/28 02:39:04;;;;;;;310.00;64.53;;;3.00;99.90;;;;;;5114379;28;20797;-73
2021/12/28 02:41:32;;;;;;;186.03;66.83;;;3.00;99.90;;;;;;5113956;28;20454;-72
2021/12/28 02:44:03;;;;;;;120.60;50.83;;;3.00;99.90;;;;;;5114322;28;20470;-72
2021/12/28 02:46:31;;;;;;;306.30;70.50;;;3.00;99.90;;;;;;5114229;28;20430;-72
2021/12/28 02:48:59;;;;;;;275.47;68.90;;;3.10;99.90;;;;;;5114099;28;20486;-72
2021/12/28 02:51:28;;;;;;;228.50;62.90;;;3.10;99.90;;;;;;5112775;28;20549;-72
2021/12/28 02:53:56;;;;;;;215.63;60.13;;;3.10;99.90;;;;;;5114185;28;20467;-73
2021/12/28 02:56:25;;;;;;;180.67;52.63;;;3.10;99.90;;;;;;5114240;28;20485;-72
2021/12/28 02:58:54;;;;;;;300.73;54.00;;;3.10;99.90;;;;;;5114276;28;20441;-72
2021/12/28 03:01:25;;;;;;;222.27;55.57;;;3.10;99.90;;;;;;5114156;28;20451;-72
2021/12/28 03:03:58;;;;;;;264.03;58.37;;;3.10;99.90;;;;;;5114903;28;20431;-72
2021/12/28 03:06:26;;;;;;;287.47;71.37;;;3.10;99.90;;;;;;5114340;28;20477;-72
2021/12/28 03:08:57;;;;;;;211.37;53.43;;;3.10;99.90;;;;;;5114027;28;20535;-72
2021/12/28 03:11:29;;;;;;;192.60;49.93;;;3.10;99.90;;;;;;5114926;28;20493;-72
2021/12/28 03:13:59;;;;;;;251.23;64.13;;;3.10;99.90;;;;;;5118200;28;20897;-72
2021/12/28 03:16:30;;;;;;;109.23;56.10;;;3.20;99.90;;;;;;5118345;28;20419;-72
2021/12/28 03:18:59;;;;;;;161.40;53.40;;;3.10;99.90;;;;;;5118339;28;20423;-72
2021/12/28 03:21:27;;;;;;;218.00;65.10;;;3.20;99.90;;;;;;5116772;28;20458;-72
2021/12/28 03:23:56;;;;;;;257.90;53.87;;;3.20;99.90;;;;;;5117915;27;20557;-72
2021/12/28 03:26:26;;;;;;;249.67;57.03;;;3.20;99.90;;;;;;5119451;28;20433;-72
2021/12/28 03:28:54;;;;;;;105.70;46.10;;;3.20;99.90;;;;;;5118614;28;20439;-72
2021/12/28 03:31:23;;;;;;;178.77;64.57;;;3.20;99.90;;;;;;5118010;27;20554;-72
2021/12/28 03:33:54;;;;;;;231.43;58.20;;;3.20;99.90;;;;;;5117899;28;20469;-72
2021/12/28 03:36:25;;;;;;;204.97;57.80;;;3.20;99.90;;;;;;5116596;28;20856;-72
2021/12/28 03:38:53;;;;;;;137.17;52.17;;;3.20;99.90;;;;;;5118506;28;20419;-72
2021/12/28 03:41:23;;;;;;;194.70;60.43;;;3.20;99.90;;;;;;5117931;27;20467;-72
2021/12/28 03:43:55;;;;;;;162.07;52.87;;;3.20;99.90;;;;;;5117807;28;20488;-72
2021/12/28 03:46:25;;;;;;;296.13;72.83;;;3.20;99.90;;;;;;5116499;28;20529;-72
2021/12/28 03:48:54;;;;;;;215.50;59.40;;;3.20;99.90;;;;;;5117812;28;20453;-72
2021/12/28 03:51:22;;;;;;;135.90;49.53;;;3.20;99.90;;;;;;5117652;28;20458;-72
2021/12/28 03:53:51;;;;;;;154.90;75.73;;;3.30;99.90;;;;;;5121251;28;20527;-72
2021/12/28 03:56:20;;;;;;;246.80;64.93;;;3.30;99.90;;;;;;5132042;28;20453;-72
2021/12/28 03:58:49;;;;;;;159.30;51.30;;;3.30;99.90;;;;;;5134585;28;20474;-72
2021/12/28 04:01:22;;;;;;;188.93;60.67;;;3.30;99.90;;;;;;5136221;28;20521;-72
2021/12/28 04:03:50;;;;;;;220.00;51.30;;;3.30;99.90;;;;;;5134359;28;20431;-72
2021/12/28 04:06:20;;;;;;;193.77;52.27;;;3.30;99.90;;;;;;5136366;28;20553;-72
2021/12/28 04:08:50;;;;;;;201.83;56.53;;;3.30;99.90;;;;;;5136439;28;20455;-72
2021/12/28 04:11:27;;;;;;;222.00;61.30;;;3.30;99.90;;;;;;5136025;28;20467;-72
2021/12/28 04:14:01;;;;;;;217.40;64.83;;;3.30;99.90;;;;;;5132824;28;20457;-72
2021/12/28 04:16:32;;;;;;;215.17;61.47;;;3.30;99.90;;;;;;5135899;28;20449;-72
2021/12/28 04:19:01;;;;;;;195.87;58.17;;;3.30;99.90;;;;;;5134986;28;20423;-72
2021/12/28 04:21:29;;;;;;;215.13;59.70;;;3.30;99.90;;;;;;5123626;28;20462;-72
2021/12/28 04:23:58;;;;;;;262.00;58.80;;;3.30;99.90;;;;;;5122494;28;20458;-72
2021/12/28 04:26:27;;;;;;;161.47;52.50;;;3.30;99.90;;;;;;5119545;28;20455;-72
2021/12/28 04:28:56;;;;;;;210.17;62.40;;;3.30;99.90;;;;;;5117258;28;20842;-73
2021/12/28 04:31:24;;;;;;;279.83;78.57;;;3.30;99.90;;;;;;5117488;28;20474;-72
2021/12/28 04:33:54;;;;;;;217.40;56.97;;;3.30;99.90;;;;;;5116635;28;20470;-72
2021/12/28 04:36:28;;;;;;;211.00;58.70;;;3.30;99.90;;;;;;5115303;28;20431;-72
2021/12/28 04:38:56;;;;;;;217.97;58.40;;;3.30;99.90;;;;;;5115509;28;20802;-72
2021/12/28 04:41:24;;;;;;;312.77;73.73;;;3.30;99.90;;;;;;5115208;28;20473;-72
2021/12/28 04:43:53;;;;;;;193.83;52.77;;;3.30;99.90;;;;;;5116320;28;20434;-72
2021/12/28 04:46:21;;;;;;;235.47;61.53;;;3.30;99.90;;;;;;5116332;28;20481;-72
2021/12/28 04:48:49;;;;;;;222.40;58.93;;;3.30;99.90;;;;;;5116233;28;21018;-72
2021/12/28 04:51:19;;;;;;;185.90;62.73;;;3.30;99.90;;;;;;5114893;28;20491;-73
2021/12/28 04:53:48;;;;;;;161.70;52.80;;;3.40;99.90;;;;;;5116298;28;20484;-72
2021/12/28 04:56:16;;;;;;;229.83;57.20;;;3.40;99.90;;;;;;5116083;28;20820;-73
2021/12/28 04:58:45;;;;;;;183.07;54.87;;;3.40;99.90;;;;;;5116379;28;20943;-72
2021/12/28 05:01:13;;;;;;;239.70;61.67;;;3.40;99.90;;;;;;5116106;28;20534;-72
2021/12/28 05:03:41;;;;;;;253.53;59.77;;;3.40;99.90;;;;;;5114634;28;20533;-72
2021/12/28 05:06:09;;;;;;;209.23;58.43;;;3.40;99.90;;;;;;5115811;28;20790;-72
2021/12/28 05:08:41;;;;;;;109.90;53.27;;;3.40;99.90;;;;;;5116320;28;20477;-72
2021/12/28 05:11:09;;;;;;;305.63;70.27;;;3.40;99.90;;;;;;5116089;28;20454;-72
2021/12/28 05:13:37;;;;;;;335.20;67.23;;;3.40;99.90;;;;;;5115555;28;20939;-72
2021/12/28 05:16:06;;;;;;;178.07;57.63;;;3.40;99.90;;;;;;5115928;28;20435;-73
2021/12/28 05:18:34;;;;;;;271.40;62.03;;;3.50;99.90;;;;;;5114349;28;20474;-72
2021/12/28 05:21:02;;;;;;;170.90;52.23;;;3.40;99.90;;;;;;5115387;28;20440;-72
2021/12/28 05:23:31;;;;;;;308.53;60.83;;;3.50;99.90;;;;;;5115603;28;20893;-72
2021/12/28 05:26:00;;;;;;;225.80;61.43;;;3.50;99.90;;;;;;5115362;28;20436;-73
2021/12/28 05:28:28;;;;;;;206.73;59.57;;;3.50;99.90;;;;;;5115342;28;20446;-72
2021/12/28 05:30:56;;;;;;;251.47;57.80;;;3.50;99.90;;;;;;5115377;28;21074;-72
2021/12/28 05:33:24;;;;;;;238.27;62.10;;;3.50;99.90;;;;;;5114759;28;20438;-73
2021/12/28 05:35:52;;;;;;;226.27;50.70;;;3.40;99.90;;;;;;5115179;28;20462;-72
2021/12/28 05:38:21;;;;;;;274.87;67.70;;;3.50;99.90;;;;;;5115167;28;20510;-72
2021/12/28 05:40:49;;;;;;;305.90;65.73;;;3.50;99.90;;;;;;5115470;28;20502;-72
2021/12/28 05:43:18;;;;;;;237.37;54.23;;;3.50;99.90;;;;;;5115325;28;20443;-72
2021/12/28 05:45:47;;;;;;;248.77;62.70;;;3.50;99.90;;;;;;5115312;28;20444;-72
2021/12/28 05:48:15;;;;;;;186.63;61.43;;;3.50;99.90;;;;;;5114820;28;20455;-72
2021/12/28 05:50:44;;;;;;;197.07;55.50;;;3.50;99.90;;;;;;5115272;28;20492;-72
2021/12/28 05:53:12;;;;;;;203.77;61.63;;;3.50;99.90;;;;;;5115193;28;20427;-72
2021/12/28 05:55:40;;;;;;;229.33;60.80;;;3.50;99.90;;;;;;5114382;28;20561;-72
2021/12/28 05:58:08;;;;;;;286.97;58.13;;;3.50;99.90;;;;;;5114744;28;20430;-72
2021/12/28 06:00:38;;;;;;;258.47;61.10;;;3.50;99.90;;;;;;5114320;28;20434;-72
2021/12/28 06:03:07;;;;;;;242.03;60.53;;;3.50;99.90;;;;;;5115142;28;20470;-72
2021/12/28 06:05:35;;;;;;;254.77;68.13;;;3.50;99.90;;;;;;5114688;28;20453;-72
2021/12/28 06:08:04;;;;;;;223.87;56.30;;;3.50;99.90;;;;;;5114298;28;20438;-72
2021/12/28 06:10:52;;;;;;;308.63;77.23;;;3.50;99.90;;;;;;5114538;28;20472;-72
2021/12/28 06:13:20;;;;;;;280.63;74.23;;;3.50;99.90;;;;;;5114251;28;20435;-72
2021/12/28 06:15:50;;;;;;;198.13;67.10;;;3.50;99.90;;;;;;5114102;28;20463;-72
2021/12/28 06:18:18;;;;;;;274.37;68.53;;;3.40;99.90;;;;;;5114334;28;20435;-72
2021/12/28 06:20:46;;;;;;;324.37;65.90;;;3.40;99.90;;;;;;5114259;28;20485;-72
2021/12/28 06:23:14;;;;;;;229.37;67.40;;;3.40;99.90;;;;;;5114091;28;20435;-72
2021/12/28 06:25:42;;;;;;;231.33;64.77;;;3.40;99.90;;;;;;5113927;28;20945;-73
2021/12/28 06:28:10;;;;;;;172.83;57.53;;;3.30;99.90;;;;;;5113890;28;20775;-72
2021/12/28 06:30:38;;;;;;;161.20;80.83;;;3.30;99.90;;;;;;5113870;28;20442;-73
2021/12/28 06:33:08;;;;;;;161.47;58.43;;;3.30;99.90;;;;;;5114084;28;20447;-72
2021/12/28 06:35:36;;;;;;;286.00;81.63;;;3.20;99.90;;;;;;5113780;28;21057;-72
2021/12/28 06:38:05;;;;;;;283.20;70.00;;;3.30;99.90;;;;;;5113805;28;20516;-72
2021/12/28 06:40:33;;;;;;;119.40;75.37;;;3.20;99.90;;;;;;5113638;28;20443;-72
2021/12/28 06:43:01;;;;;;;148.17;65.93;;;3.20;99.90;;;;;;5113971;28;20850;-72
2021/12/28 06:45:29;;;;;;;156.93;77.90;;;3.20;99.90;;;;;;5113515;28;20967;-72
2021/12/28 06:47:57;;;;;;;94.77;87.20;;;3.10;99.90;;;;;;5113742;28;20439;-72
2021/12/28 06:50:27;;;;;;;131.73;71.13;;;3.10;99.90;;;;;;5113486;28;20810;-72
2021/12/28 06:52:55;;;;;;;176.00;87.03;;;3.10;99.90;;;;;;5112429;28;21005;-72
2021/12/28 06:55:23;;;;;;;152.80;55.80;;;3.10;99.90;;;;;;5112627;28;20472;-72
2021/12/28 06:57:51;;;;;;;153.30;84.43;;;3.00;99.90;;;;;;5112663;28;20982;-72
2021/12/28 07:00:22;;;;;;;129.67;72.23;;;3.00;99.90;;;;;;5113515;28;20893;-72
2021/12/28 07:02:50;;;;;;;142.33;74.03;;;3.00;99.90;;;;;;5113617;28;20441;-72
2021/12/28 07:05:18;;;;;;;126.03;66.77;;;3.00;99.90;;;;;;5113567;28;20442;-72
2021/12/28 07:07:48;;;;;;;195.17;64.30;;;3.00;99.90;;;;;;5113621;28;20471;-72
2021/12/28 07:10:19;;;;;;;183.43;67.23;;;3.00;99.90;;;;;;5113466;28;20442;-72
2021/12/28 07:12:50;;;;;;;117.87;72.20;;;3.00;99.90;;;;;;5112228;28;20929;-72
2021/12/28 07:15:19;;;;;;;240.00;81.47;;;3.00;99.90;;;;;;5113667;28;20518;-72
2021/12/28 07:17:47;;;;;;;196.57;71.97;;;3.00;99.90;;;;;;5112299;28;20435;-72
2021/12/28 07:20:15;;;;;;;182.97;68.90;;;3.00;99.90;;;;;;5113556;28;20522;-72
2021/12/28 07:22:44;;;;;;;149.53;65.13;;;3.00;99.90;;;;;;5113310;28;20451;-72
2021/12/28 07:25:13;;;;;;;264.27;67.03;;;3.00;99.90;;;;;;5112237;28;20520;-72
2021/12/28 07:27:41;;;;;;;93.00;84.90;;;3.00;99.90;;;;;;5113515;28;20865;-72
2021/12/28 07:30:12;;;;;;;117.97;66.60;;;3.00;99.90;;;;;;5113511;28;20940;-72
2021/12/28 07:32:41;;;;;;;228.53;66.10;;;3.00;99.90;;;;;;5113426;28;20457;-72
2021/12/28 07:35:11;;;;;;;190.87;70.10;;;3.00;99.90;;;;;;5113545;28;20801;-72
2021/12/28 07:37:40;;;;;;;244.63;70.77;;;3.00;99.90;;;;;;5113480;28;20435;-73
2021/12/28 07:40:09;;;;;;;223.63;72.07;;;3.00;99.90;;;;;;5113360;28;20444;-72
2021/12/28 07:42:39;;;;;;;220.43;67.10;;;3.00;99.90;;;;;;5112118;28;21029;-72
2021/12/28 07:45:10;;;;;;;169.90;59.47;;;3.00;99.90;;;;;;5113506;28;20877;-72
2021/12/28 07:47:38;;;;;;;184.50;60.70;;;3.00;99.90;;;;;;5112008;28;20439;-72
2021/12/28 07:50:08;;;;;;;184.87;66.87;;;3.00;99.90;;;;;;5112039;28;20461;-72
2021/12/28 07:52:37;;;;;;;164.97;56.60;;;3.00;99.90;;;;;;5111946;28;21002;-72
2021/12/28 07:55:08;;;;;;;298.80;69.83;;;3.00;99.90;;;;;;5113405;28;20435;-72
2021/12/28 07:57:36;;;;;;;122.73;54.57;;;3.00;99.90;;;;;;5115956;28;20926;-72
2021/12/28 08:00:08;;;;;;;199.40;58.07;;;3.10;99.90;;;;;;5115588;28;20455;-72
2021/12/28 08:02:39;;;;;;;159.57;62.90;;;3.10;99.90;;;;;;5116728;28;20461;-72
2021/12/28 08:05:08;;;;;;;255.53;65.93;;;3.10;99.90;;;;;;5116862;28;20439;-71
2021/12/28 08:07:36;;;;;;;249.00;72.20;;;3.10;99.90;;;;;;5117280;28;20435;-71
2021/12/28 08:10:05;;;;;;;274.10;68.77;;;3.10;99.90;;;;;;5115360;28;20451;-75
2021/12/28 08:12:33;;;;;;;213.33;74.27;;;3.10;99.90;;;;;;5116561;28;20457;-71
2021/12/28 08:15:04;;;;;;;76.80;71.00;;;3.10;99.90;;;;;;5117056;28;20479;-71
2021/12/28 08:17:35;;;;;;;250.63;70.90;;;3.10;99.90;;;;;;5117190;28;20951;-71
2021/12/28 08:20:04;;;;;;;232.97;76.87;;;3.10;99.90;;;;;;5117294;28;20441;-71
2021/12/28 08:22:32;;;;;;;159.27;56.30;;;3.10;99.90;;;;;;5116085;28;20559;-70
2021/12/28 08:25:00;;;;;;;238.03;66.70;;;3.10;99.90;;;;;;5118194;28;20428;-70
2021/12/28 08:27:30;;;;;;;185.73;58.17;;;3.10;99.90;;;;;;5117743;28;20840;-71
2021/12/28 08:29:58;;;;;;;200.53;63.87;;;3.10;99.90;;;;;;5120873;28;20518;-71
2021/12/28 08:32:26;;;;;;;226.40;69.23;;;3.10;99.90;;;;;;5119188;27;20563;-71
2021/12/28 08:34:56;;;;;;;182.80;47.13;;;3.10;99.90;;;;;;5116836;28;20526;-71
2021/12/28 08:37:24;;;;;;;234.27;56.60;;;3.20;99.90;;;;;;5119057;28;20470;-72
2021/12/28 08:39:53;;;;;;;248.47;70.97;;;3.20;99.90;;;;;;5117071;28;21004;-72
2021/12/28 08:42:22;;;;;;;237.27;65.50;;;3.20;99.90;;;;;;5116667;28;20457;-71
2021/12/28 08:44:51;;;;;;;165.90;51.90;;;3.20;99.90;;;;;;5128333;28;20423;-72
2021/12/28 08:47:22;;;;;;;191.07;56.00;;;3.30;99.90;;;;;;5136687;28;20531;-71
2021/12/28 08:49:50;;;;;;;299.27;59.13;;;3.30;99.90;;;;;;5132866;28;20534;-72
2021/12/28 08:52:19;;;;;;;269.53;68.63;;;3.30;99.90;;;;;;5136102;28;20476;-71
2021/12/28 08:54:47;;;;;;;228.23;66.17;;;3.30;99.90;;;;;;5133670;28;20432;-71
2021/12/28 08:57:17;;;;;;;186.13;50.70;;;3.30;99.90;;;;;;5133025;28;20520;-72
2021/12/28 08:59:46;;;;;;;230.93;60.73;;;3.30;99.90;;;;;;5132599;28;20503;-73
2021/12/28 09:02:14;;;;;;;240.00;61.77;;;3.30;99.90;;;;;;5128243;28;20459;-72
2021/12/28 09:04:46;;;;;;;270.20;58.27;;;3.40;99.90;;;;;;5127866;28;20964;-72
2021/12/28 09:07:14;;;;;;;190.27;62.40;;;3.40;99.90;;;;;;5132746;28;20485;-72
2021/12/28 09:09:44;;;;;;;195.83;54.07;;;3.40;99.90;;;;;;5132436;28;20465;-71
2021/12/28 09:12:12;;;;;;;244.57;60.10;;;3.40;99.90;;;;;;5115947;28;20466;-72
2021/12/28 09:14:41;;;;;;;267.47;60.27;;;3.50;99.90;;;;;;5114653;28;20468;-72
2021/12/28 09:17:09;;;;;;;232.63;58.53;;;3.50;99.90;;;;;;5115595;28;20471;-72
2021/12/28 09:19:38;;;;;;;178.13;53.87;;;3.50;99.90;;;;;;5116033;28;20466;-72
2021/12/28 09:22:07;;;;;;;282.93;62.93;;;3.60;99.90;;;;;;5115762;28;20456;-72
2021/12/28 09:24:36;;;;;;;206.10;52.27;;;3.60;99.90;;;;;;5115601;28;20486;-72
2021/12/28 09:27:14;;;;;;;163.20;51.33;;;3.70;99.90;;;;;;5115857;28;20501;-72
2021/12/28 09:29:43;;;;;;;180.17;53.80;;;3.70;99.90;;;;;;5114321;28;20494;-72
2021/12/28 09:32:20;;;;;;;115.80;45.53;;;3.80;99.90;;;;;;5115740;28;20507;-72
2021/12/28 09:34:52;;;;;;;154.17;48.30;;;3.70;99.90;;;;;;5114263;28;20525;-72
2021/12/28 09:37:21;;;;;;;217.80;59.77;;;3.80;99.90;;;;;;5114196;28;20558;-72
2021/12/28 09:39:50;;;;;;;152.93;50.53;;;3.80;99.90;;;;;;5115386;28;20438;-73
2021/12/28 09:42:20;;;;;;;144.97;51.53;;;3.90;99.90;;;;;;5115037;27;20469;-72
2021/12/28 09:44:50;;;;;;;187.63;51.47;;;4.00;99.90;;;;;;5113735;28;20447;-71
2021/12/28 09:47:19;;;;;;;153.17;49.67;;;4.10;99.90;;;;;;5115429;28;20450;-72
2021/12/28 09:49:48;;;;;;;171.63;51.17;;;4.10;99.90;;;;;;5114967;28;20454;-72
2021/12/28 09:52:18;;;;;;;224.73;59.53;;;4.20;99.90;;;;;;5114990;28;20969;-72
2021/12/28 09:54:47;;;;;;;188.57;50.93;;;4.20;99.90;;;;;;5114998;28;20947;-72
2021/12/28 09:57:16;;;;;;;155.90;43.70;;;4.20;99.90;;;;;;5113381;28;20455;-72
2021/12/28 09:59:47;;;;;;;133.13;42.83;;;4.30;99.90;;;;;;5115392;28;20473;-72
2021/12/28 10:02:17;;;;;;;137.40;43.90;;;4.30;99.90;;;;;;5113802;28;20467;-72
2021/12/28 10:04:58;;;;;;;298.67;56.97;;;4.30;99.90;;;;;;5114810;28;20812;-72
2021/12/28 10:07:32;;;;;;;280.17;62.57;;;4.40;99.90;;;;;;5114590;28;20424;-72
2021/12/28 10:10:00;;;;;;;298.80;62.60;;;4.40;99.90;;;;;;5114408;28;20473;-72
2021/12/28 10:12:30;;;;;;;245.30;56.57;;;4.50;99.90;;;;;;5114449;28;20827;-72
2021/12/28 10:15:04;;;;;;;224.87;49.63;;;4.50;99.90;;;;;;5114842;28;20506;-73
2021/12/28 10:17:34;;;;;;;193.70;47.87;;;4.50;99.90;;;;;;5114697;28;20462;-72
2021/12/28 10:20:08;;;;;;;258.83;53.97;;;4.60;99.90;;;;;;5114323;28;20431;-72
2021/12/28 10:22:42;;;;;;;236.77;58.83;;;4.60;99.90;;;;;;5114411;28;20991;-72
2021/12/28 10:25:14;;;;;;;141.83;40.93;;;4.60;99.90;;;;;;5114614;28;20502;-72
2021/12/28 10:27:45;;;;;;;178.37;46.87;;;4.60;99.90;;;;;;5114767;28;20422;-72
2021/12/28 10:30:17;;;;;;;287.53;52.73;;;4.60;99.90;;;;;;5114928;28;20441;-72
2021/12/28 10:32:47;;;;;;;220.00;45.23;;;4.60;99.90;;;;;;5114444;28;20524;-72
2021/12/28 10:35:18;;;;;;;199.10;45.23;;;4.60;99.90;;;;;;5114654;28;20454;-72
2021/12/28 10:37:49;;;;;;;149.83;42.70;;;4.60;99.90;;;;;;5114280;28;20474;-72
2021/12/28 10:40:24;;;;;;;156.30;43.43;;;4.60;99.90;;;;;;5114343;28;20423;-72
2021/12/28 10:42:56;;;;;;;238.77;51.80;;;4.60;99.90;;;;;;5113940;28;20420;-73
2021/12/28 10:45:28;;;;;;;297.90;60.77;;;4.70;99.90;;;;;;5114341;28;20455;-72
2021/12/28 10:47:57;;;;;;;182.63;49.03;;;4.70;99.90;;;;;;5112594;28;20435;-72
2021/12/28 10:50:30;;;;;;;193.10;59.53;;;4.70;99.90;;;;;;5113689;28;20450;-72
2021/12/28 10:53:04;;;;;;;220.23;51.30;;;4.80;99.90;;;;;;5114290;28;20426;-72
2021/12/28 10:55:32;;;;;;;186.10;41.43;;;4.90;99.90;;;;;;5113251;28;20416;-72
2021/12/28 10:58:02;;;;;;;326.13;54.10;;;4.90;99.90;;;;;;5104300;28;20465;-72
2021/12/28 11:00:37;;;;;;;174.53;48.57;;;4.90;99.90;;;;;;5094727;28;20436;-72
2021/12/28 11:03:30;;;;;;;173.87;47.10;;;4.90;99.90;;;;;;5093065;28;20526;-72
2021/12/28 11:06:01;;;;;;;193.97;46.57;;;5.00;99.90;;;;;;5093712;28;20466;-72
2021/12/28 11:08:29;;;;;;;210.97;46.47;;;5.00;99.90;;;;;;5092052;28;20845;-72
2021/12/28 11:11:01;;;;;;;223.30;47.93;;;5.00;99.90;;;;;;5093700;28;20458;-72
2021/12/28 11:13:32;;;;;;;224.23;49.87;;;5.00;99.90;;;;;;5094022;28;20453;-72
2021/12/28 11:16:03;;;;;;;159.93;45.87;;;5.00;99.90;;;;;;5098986;28;20447;-72
2021/12/28 11:18:34;;;;;;;171.93;44.07;;;5.00;99.90;;;;;;5098440;28;20467;-72
2021/12/28 11:21:10;;;;;;;188.67;41.33;;;5.00;99.90;;;;;;5092454;28;20959;-72
2021/12/28 11:23:39;;;;;;;172.33;40.23;;;5.00;99.90;;;;;;5093865;28;20471;-72
2021/12/28 11:26:15;;;;;;;230.30;46.73;;;5.00;99.90;;;;;;5093366;28;20435;-73
2021/12/28 11:28:53;;;;;;;286.23;51.20;;;5.00;99.90;;;;;;5093454;28;20425;-73
2021/12/28 11:31:24;;;;;;;268.50;51.70;;;5.00;99.90;;;;;;5099119;28;21066;-73
2021/12/28 11:33:59;;;;;;;262.33;53.43;;;5.00;99.90;;;;;;5102295;28;20860;-72
2021/12/28 11:36:29;;;;;;;250.23;47.93;;;5.10;99.90;;;;;;5096188;28;20423;-72
2021/12/28 11:39:00;;;;;;;194.07;49.30;;;5.10;99.90;;;;;;5114677;28;20466;-72
2021/12/28 11:41:29;;;;;;;190.03;50.93;;;5.00;99.90;;;;;;5117714;28;20846;-72
2021/12/28 11:43:58;;;;;;;219.40;49.27;;;5.10;99.90;;;;;;5117401;28;20796;-72
2021/12/28 11:46:29;;;;;;;255.33;52.00;;;5.10;99.90;;;;;;5117418;28;20431;-72
2021/12/28 11:48:58;;;;;;;222.63;48.90;;;5.10;99.90;;;;;;5117145;28;20446;-73
2021/12/28 11:51:27;;;;;;;288.33;50.80;;;5.10;99.90;;;;;;5117126;28;20455;-72
2021/12/28 11:53:58;;;;;;;188.90;45.60;;;5.10;99.90;;;;;;5117554;28;20446;-71
2021/12/28 11:56:30;;;;;;;197.33;43.23;;;5.10;99.90;;;;;;5117370;28;20415;-72
2021/12/28 11:59:10;;;;;;;273.73;52.60;;;5.10;99.90;;;;;;5117093;28;20451;-72
2021/12/28 12:01:46;;;;;;;296.37;60.03;;;5.10;99.90;;;;;;5117054;28;20534;-72
2021/12/28 12:04:56;;;;;;;148.30;48.93;;;5.10;99.90;;;;;;5117117;28;20468;-72
2021/12/28 12:07:31;;;;;;;198.30;40.23;;;5.20;99.90;;;;;;5117191;28;20424;-72
2021/12/28 12:10:11;;;;;;;238.00;48.80;;;5.20;99.90;;;;;;5115760;28;20494;-72
2021/12/28 12:13:07;;;;;;;268.20;46.17;;;5.20;99.90;;;;;;5116831;28;20457;-72
2021/12/28 12:15:40;;;;;;;201.67;43.20;;;5.20;99.90;;;;;;5117020;28;20950;-72
2021/12/28 12:18:16;;;;;;;131.43;37.33;;;5.20;99.90;;;;;;5117220;28;20472;-72
2021/12/28 12:20:56;;;;;;;268.80;50.70;;;5.20;99.90;;;;;;5117086;28;20447;-73
2021/12/28 12:23:40;;;;;;;198.93;46.00;;;5.20;99.90;;;;;;5115358;28;20471;-72
2021/12/28 12:26:12;;;;;;;180.63;41.33;;;5.20;99.90;;;;;;5116875;28;20780;-73
2021/12/28 12:28:49;;;;;;;262.50;50.37;;;5.20;99.90;;;;;;5116600;28;20511;-73
2021/12/28 12:31:27;;;;;;;208.67;50.50;;;5.30;99.90;;;;;;5116226;28;20964;-73
2021/12/28 12:33:58;;;;;;;170.53;39.57;;;5.30;99.90;;;;;;5116623;28;20493;-73
2021/12/28 12:36:41;;;;;;;180.40;45.63;;;5.30;99.90;;;;;;5116967;27;20510;-72
2021/12/28 12:39:16;;;;;;;182.70;46.03;;;5.30;99.90;;;;;;5115187;28;20491;-71
2021/12/28 12:41:49;;;;;;;313.30;49.87;;;5.30;99.90;;;;;;5116396;28;20497;-73
2021/12/28 12:44:20;;;;;;;258.90;40.90;;;5.30;99.90;;;;;;5120754;28;20554;-72